Time;durP1;ratioP1;P1;durP2;ratioP2;P2;SDS_P1;SDS_P2;PMS_P1;PMS_P2;Temp;Humidity;BMP_temperature;BMP_pressure;BME280_temperature;BME280_humidity;BME280_pressure;Samples;Min_cycle;Max_cycle;Signal;HPM_P1;HPM_P2
2023/12/14 00:18:59;;;;;;;4.55;3.03;;;;;;;;;;4961044;28;20051;-59
2023/12/14 00:21:26;;;;;;;7.55;3.17;;;;;;;;;;4959089;28;20043;-57
2023/12/14 00:24:01;;;;;;;4.55;2.90;;;;;;;;;;4958421;28;20063;-57
2023/12/14 00:26:28;;;;;;;;;;;;;;;;;;4963284;28;20986;-57
2023/12/14 00:29:01;;;;;;;4.60;2.80;;;;;;;;;;4961182;28;19930;-47
2023/12/14 00:31:28;;;;;;;;;;;;;;;;;;4959072;28;20136;-51
2023/12/14 00:33:56;;;;;;;4.57;2.67;;;;;;;;;;4961012;28;19921;-52
2023/12/14 00:36:29;;;;;;;5.53;3.08;;;;;;;;;;4962156;28;20061;-51
2023/12/14 00:38:56;;;;;;;5.13;3.47;;;;;;;;;;4962506;28;20058;-58
2023/12/14 00:41:30;;;;;;;5.28;2.70;;;;;;;;;;4960587;28;20106;-48
2023/12/14 00:43:57;;;;;;;5.03;3.03;;;;;;;;;;4955688;28;20129;-50
2023/12/14 00:46:25;;;;;;;4.13;2.97;;;;;;;;;;4961813;28;20450;-52
2023/12/14 00:49:00;;;;;;;5.70;2.88;;;;;;;;;;4964891;28;20062;-49
2023/12/14 00:51:27;;;;;;;3.65;2.70;;;;;;;;;;4954784;28;20082;-52
2023/12/14 00:54:01;;;;;;;4.28;2.88;;;;;;;;;;4957983;28;20070;-50
2023/12/14 00:56:35;;;;;;;4.15;2.40;;;;;;;;;;4958170;28;20174;-67
2023/12/14 00:59:09;;;;;;;4.75;2.97;;;;;;;;;;4964988;28;20787;-67
2023/12/14 01:01:36;;;;;;;;;;;;;;;;;;4958786;28;20407;-67
2023/12/14 01:04:04;;;;;;;5.07;3.05;;;;;;;;;;4962031;28;19922;-67
2023/12/14 01:06:38;;;;;;;4.55;2.90;;;;;;;;;;4957360;28;20058;-60
2023/12/14 01:09:06;;;;;;;4.95;2.85;;;;;;;;;;4956985;28;20062;-56
2023/12/14 01:11:33;;;;;;;5.18;3.03;;;;;;;;;;4959704;28;20396;-60
2023/12/14 01:14:07;;;;;;;3.75;2.70;;;;;;;;;;4960397;28;20074;-60
2023/12/14 01:16:35;;;;;;;4.03;2.90;;;;;;;;;;4960491;28;20054;-60
2023/12/14 01:19:15;;;;;;;4.43;2.78;;;;;;;;;;4977716;28;20054;-60
2023/12/14 01:21:42;;;;;;;3.95;2.58;;;;;;;;;;4980797;28;20510;-60
2023/12/14 01:24:16;;;;;;;5.50;3.22;;;;;;;;;;4978737;28;20054;-60
2023/12/14 01:26:44;;;;;;;5.68;3.35;;;;;;;;;;4983409;28;20755;-64
2023/12/14 01:29:11;;;;;;;;;;;;;;;;;;4978482;28;20866;-64
2023/12/14 01:31:45;;;;;;;4.63;3.08;;;;;;;;;;4975183;28;20291;-64
2023/12/14 01:34:12;;;;;;;;;;;;;;;;;;4978203;28;20495;-64
2023/12/14 01:36:40;;;;;;;5.35;3.00;;;;;;;;;;4974826;28;19925;-59
2023/12/14 01:39:13;;;;;;;4.78;3.03;;;;;;;;;;4979397;28;20073;-59
2023/12/14 01:41:40;;;;;;;5.75;2.80;;;;;;;;;;4975441;28;20042;-58
2023/12/14 01:44:14;;;;;;;6.43;3.17;;;;;;;;;;4978057;28;20071;-59
2023/12/14 01:46:41;;;;;;;;;;;;;;;;;;4969059;28;20986;-59
2023/12/14 01:49:08;;;;;;;5.47;3.08;;;;;;;;;;4978657;28;19930;-62
2023/12/14 01:51:42;;;;;;;3.97;2.80;;;;;;;;;;4976673;28;20112;-61
2023/12/14 01:54:09;;;;;;;;;;;;;;;;;;4979710;28;20612;-54
2023/12/14 01:56:43;;;;;;;5.93;2.88;;;;;;;;;;4985373;28;19921;-51
2023/12/14 01:59:10;;;;;;;4.20;2.92;;;;;;;;;;4982693;28;20561;-53
2023/12/14 02:01:38;;;;;;;5.75;2.88;;;;;;;;;;4977360;28;20058;-55
2023/12/14 02:04:12;;;;;;;4.35;3.00;;;;;;;;;;4983038;28;20058;-52
2023/12/14 02:06:40;;;;;;;3.90;2.90;;;;;;;;;;4980557;28;20061;-58
2023/12/14 02:09:07;;;;;;;;;;;;;;;;;;4986004;28;20125;-57
2023/12/14 02:11:40;;;;;;;4.22;2.85;;;;;;;;;;4980718;28;20013;-58
2023/12/14 02:14:10;;;;;;;4.65;2.95;;;;;;;;;;4985930;28;20154;-54
2023/12/14 02:16:50;;;;;;;3.70;2.65;;;;;;;;;;4995875;28;20332;-56
2023/12/14 02:19:24;;;;;;;4.00;2.47;;;;;;;;;;4979481;28;20615;-57
2023/12/14 02:21:57;;;;;;;4.57;3.03;;;;;;;;;;4983196;28;20125;-51
2023/12/14 02:24:24;;;;;;;4.18;2.88;;;;;;;;;;4985490;28;20462;-53
2023/12/14 02:26:52;;;;;;;4.63;3.45;;;;;;;;;;4983708;28;20141;-46
2023/12/14 02:29:30;;;;;;;4.60;3.10;;;;;;;;;;4984807;28;20188;-52
2023/12/14 02:32:04;;;;;;;3.47;2.78;;;;;;;;;;4980295;28;20054;-57
2023/12/14 02:34:38;;;;;;;5.05;3.20;;;;;;;;;;4978267;28;20046;-49
2023/12/14 02:37:06;;;;;;;4.32;2.80;;;;;;;;;;4984467;28;20061;-64
2023/12/14 02:39:33;;;;;;;4.93;2.67;;;;;;;;;;4982742;28;20058;-64
2023/12/14 02:42:07;;;;;;;3.65;2.58;;;;;;;;;;4983890;28;20050;-64
2023/12/14 02:44:34;;;;;;;3.53;2.35;;;;;;;;;;4982358;28;20100;-64
2023/12/14 02:47:02;;;;;;;4.65;2.88;;;;;;;;;;4976197;28;20144;-63
2023/12/14 02:49:35;;;;;;;3.90;2.55;;;;;;;;;;4981012;28;20054;-63
2023/12/14 02:52:02;;;;;;;4.18;3.00;;;;;;;;;;4979385;28;20054;-59
2023/12/14 02:54:39;;;;;;;4.05;2.83;;;;;;;;;;4982692;28;20058;-58
2023/12/14 02:57:06;;;;;;;4.85;2.55;;;;;;;;;;4975712;28;20229;-59
2023/12/14 02:59:34;;;;;;;;;;;;;;;;;;4981437;28;20054;-59
2023/12/14 03:02:07;;;;;;;3.22;2.40;;;;;;;;;;4975305;28;19986;-67
2023/12/14 03:04:34;;;;;;;2.85;2.20;;;;;;;;;;4980212;28;20128;-60
2023/12/14 03:07:02;;;;;;;3.97;2.42;;;;;;;;;;4980741;28;20050;-60
2023/12/14 03:09:35;;;;;;;5.35;2.72;;;;;;;;;;4978586;28;20457;-59
2023/12/14 03:12:03;;;;;;;5.40;2.80;;;;;;;;;;4981729;28;20051;-60
2023/12/14 03:14:36;;;;;;;3.25;2.40;;;;;;;;;;4978062;28;20055;-60
2023/12/14 03:17:03;;;;;;;;;;;;;;;;;;4980475;28;20062;-61
2023/12/14 03:19:38;;;;;;;4.15;2.50;;;;;;;;;;4981247;28;19930;-51
2023/12/14 03:22:12;;;;;;;3.67;2.25;;;;;;;;;;4979484;28;20164;-50
2023/12/14 03:24:39;;;;;;;4.00;2.67;;;;;;;;;;4972403;28;20518;-50
2023/12/14 03:27:14;;;;;;;4.60;2.25;;;;;;;;;;4975180;28;20069;-51
2023/12/14 03:29:41;;;;;;;4.13;2.55;;;;;;;;;;4980161;28;20454;-62
2023/12/14 03:32:08;;;;;;;4.15;2.67;;;;;;;;;;4977880;28;20505;-53
2023/12/14 03:34:42;;;;;;;3.88;2.00;;;;;;;;;;4979232;28;20512;-57
2023/12/14 03:37:09;;;;;;;;;;;;;;;;;;4984712;28;20140;-57
2023/12/14 03:39:43;;;;;;;3.40;2.13;;;;;;;;;;4979310;28;19930;-55
2023/12/14 03:42:10;;;;;;;3.72;2.10;;;;;;;;;;4979268;28;20398;-54
2023/12/14 03:44:38;;;;;;;4.05;2.25;;;;;;;;;;4987145;28;20050;-57
2023/12/14 03:47:11;;;;;;;3.58;2.20;;;;;;;;;;4979549;28;20058;-58
2023/12/14 03:49:39;;;;;;;6.15;2.58;;;;;;;;;;4981537;28;20051;-57
2023/12/14 03:52:12;;;;;;;5.75;3.08;;;;;;;;;;4981675;28;20050;-60
2023/12/14 03:54:40;;;;;;;5.72;2.70;;;;;;;;;;5006796;28;20093;-57
2023/12/14 03:57:07;;;;;;;4.10;2.38;;;;;;;;;;4980764;28;20069;-66
2023/12/14 03:59:41;;;;;;;3.53;2.30;;;;;;;;;;4978825;28;20054;-65
2023/12/14 04:02:08;;;;;;;;;;;;;;;;;;4976491;28;20060;-63
2023/12/14 04:04:43;;;;;;;5.40;2.38;;;;;;;;;;4982912;28;19928;-61
2023/12/14 04:07:10;;;;;;;3.55;2.40;;;;;;;;;;4975965;28;20136;-62
2023/12/14 04:09:37;;;;;;;;;;;;;;;;;;4977642;28;20062;-60
2023/12/14 04:12:11;;;;;;;3.63;2.13;;;;;;;;;;4978220;28;19926;-60
2023/12/14 04:14:38;;;;;;;4.70;2.63;;;;;;;;;;4977035;28;20612;-60
2023/12/14 04:17:19;;;;;;;4.75;2.83;;;;;;;;;;5002796;28;20058;-64
2023/12/14 04:19:53;;;;;;;4.55;2.58;;;;;;;;;;4976366;28;20070;-64
2023/12/14 04:22:27;;;;;;;4.00;2.70;;;;;;;;;;4980513;28;20421;-63
2023/12/14 04:25:16;;;;;;;7.72;2.70;;;;;;;;;;4977405;28;20052;-64
2023/12/14 04:27:50;;;;;;;3.55;2.53;;;;;;;;;;4975111;28;20352;-50
2023/12/14 04:30:24;;;;;;;4.00;2.55;;;;;;;;;;4981035;28;20105;-59
2023/12/14 04:32:52;;;;;;;4.35;2.67;;;;;;;;;;4978988;28;20147;-60
2023/12/14 04:35:21;;;;;;;;;;;;;;;;;;4981183;28;20613;-59
2023/12/14 04:38:02;;;;;;;3.40;2.50;;;;;;;;;;4980444;28;19926;-59
2023/12/14 04:40:29;;;;;;;3.35;2.30;;;;;;;;;;4982183;28;20068;-60
2023/12/14 04:43:04;;;;;;;3.83;2.53;;;;;;;;;;4975309;28;20429;-59
2023/12/14 04:45:38;;;;;;;4.07;2.60;;;;;;;;;;4979181;28;20105;-50
2023/12/14 04:48:06;;;;;;;6.25;2.75;;;;;;;;;;4977998;28;20053;-50
2023/12/14 04:50:33;;;;;;;3.80;2.70;;;;;;;;;;4982252;28;20220;-52
2023/12/14 04:53:08;;;;;;;5.20;3.10;;;;;;;;;;4969913;28;20193;-52
2023/12/14 04:55:35;;;;;;;4.88;2.70;;;;;;;;;;4959346;28;20679;-52
2023/12/14 04:58:11;;;;;;;6.85;3.65;;;;;;;;;;4958479;28;20058;-49
2023/12/14 05:00:39;;;;;;;3.83;2.80;;;;;;;;;;4958584;28;20051;-51
2023/12/14 05:03:06;;;;;;;5.30;3.00;;;;;;;;;;4955505;28;20061;-51
2023/12/14 05:05:40;;;;;;;6.22;3.95;;;;;;;;;;4958919;28;20066;-55
2023/12/14 05:08:08;;;;;;;4.75;2.92;;;;;;;;;;4955955;28;20145;-52
2023/12/14 05:10:35;;;;;;;4.75;3.15;;;;;;;;;;4963990;28;20065;-48
2023/12/14 05:13:08;;;;;;;6.13;3.70;;;;;;;;;;4957740;28;20250;-59
2023/12/14 05:15:35;;;;;;;5.80;3.75;;;;;;;;;;4958798;28;20507;-59
2023/12/14 05:18:16;;;;;;;5.05;3.35;;;;;;;;;;4962711;28;20141;-59
2023/12/14 05:20:45;;;;;;;5.90;3.47;;;;;;;;;;4978170;28;20065;-60
2023/12/14 05:23:20;;;;;;;5.00;3.28;;;;;;;;;;4971243;28;20054;-50
2023/12/14 05:25:47;;;;;;;4.82;3.10;;;;;;;;;;4974915;28;20466;-57
2023/12/14 05:28:14;;;;;;;6.68;3.13;;;;;;;;;;4973892;28;20065;-59
2023/12/14 05:30:49;;;;;;;6.20;3.70;;;;;;;;;;4978127;28;20066;-60
2023/12/14 05:33:16;;;;;;;4.72;3.15;;;;;;;;;;4976468;28;20153;-60
2023/12/14 05:35:43;;;;;;;6.50;3.65;;;;;;;;;;4978822;28;20058;-59
2023/12/14 05:38:17;;;;;;;6.68;3.75;;;;;;;;;;4972754;28;20043;-60
2023/12/14 05:40:45;;;;;;;6.95;3.40;;;;;;;;;;4976620;28;20608;-62
2023/12/14 05:43:18;;;;;;;5.47;3.58;;;;;;;;;;4970832;28;20057;-60
2023/12/14 05:45:46;;;;;;;;;;;;;;;;;;4974912;28;20065;-59
2023/12/14 05:48:13;;;;;;;4.68;3.10;;;;;;;;;;4974678;28;19922;-60
2023/12/14 05:50:47;;;;;;;5.78;3.55;;;;;;;;;;4978193;28;20054;-58
2023/12/14 05:53:14;;;;;;;;;;;;;;;;;;4977634;28;20066;-63
2023/12/14 05:55:48;;;;;;;7.15;3.72;;;;;;;;;;4979009;28;20024;-61
2023/12/14 05:58:16;;;;;;;6.45;3.40;;;;;;;;;;4975419;28;20458;-60
2023/12/14 06:00:43;;;;;;;5.22;3.40;;;;;;;;;;4966243;28;20098;-59
2023/12/14 06:03:17;;;;;;;6.65;3.42;;;;;;;;;;4968042;28;21269;-59
2023/12/14 06:05:44;;;;;;;5.28;3.40;;;;;;;;;;4974683;28;20112;-59
2023/12/14 06:08:11;;;;;;;;;;;;;;;;;;4981137;28;20473;-59
2023/12/14 06:10:45;;;;;;;6.13;3.22;;;;;;;;;;4981020;28;20036;-60
2023/12/14 06:13:12;;;;;;;;;;;;;;;;;;4979063;28;20062;-61
2023/12/14 06:15:46;;;;;;;6.10;3.00;;;;;;;;;;4982758;28;19977;-60
2023/12/14 06:18:20;;;;;;;5.45;3.22;;;;;;;;;;4978832;28;20065;-60
2023/12/14 06:20:54;;;;;;;5.97;3.95;;;;;;;;;;4980573;28;20058;-67
2023/12/14 06:23:21;;;;;;;;;;;;;;;;;;4981464;28;20454;-52
2023/12/14 06:25:48;;;;;;;5.68;3.30;;;;;;;;;;4982624;28;19944;-51
2023/12/14 06:28:22;;;;;;;5.82;3.33;;;;;;;;;;4979264;28;20109;-51
2023/12/14 06:30:50;;;;;;;;;;;;;;;;;;4979818;28;20062;-50
2023/12/14 06:33:17;;;;;;;5.25;3.15;;;;;;;;;;4980209;28;20009;-54
2023/12/14 06:35:51;;;;;;;5.95;3.60;;;;;;;;;;4984048;28;20054;-49
2023/12/14 06:38:18;;;;;;;;;;;;;;;;;;4984451;28;20062;-61
2023/12/14 06:40:53;;;;;;;5.70;3.72;;;;;;;;;;4981264;28;20341;-60
2023/12/14 06:43:20;;;;;;;6.35;4.10;;;;;;;;;;4979945;28;20163;-60
2023/12/14 06:45:47;;;;;;;5.38;3.60;;;;;;;;;;4983177;28;20043;-60
2023/12/14 06:48:20;;;;;;;7.97;4.00;;;;;;;;;;4979780;28;20140;-60
2023/12/14 06:50:48;;;;;;;5.82;3.90;;;;;;;;;;4985227;28;20525;-49
2023/12/14 06:53:21;;;;;;;4.97;3.60;;;;;;;;;;4982936;28;20124;-54
2023/12/14 06:55:48;;;;;;;;;;;;;;;;;;4968359;28;20046;-54
2023/12/14 06:58:16;;;;;;;5.40;3.60;;;;;;;;;;4983758;28;19930;-51
2023/12/14 07:00:49;;;;;;;6.28;3.80;;;;;;;;;;4981833;28;20065;-54
2023/12/14 07:03:17;;;;;;;;;;;;;;;;;;4985567;28;20053;-55
2023/12/14 07:05:50;;;;;;;6.97;3.80;;;;;;;;;;4985221;28;19949;-53
2023/12/14 07:08:17;;;;;;;;;;;;;;;;;;4980784;28;20059;-65
2023/12/14 07:10:52;;;;;;;5.30;3.63;;;;;;;;;;4982096;28;19926;-66
2023/12/14 07:13:19;;;;;;;6.93;4.10;;;;;;;;;;4967444;28;20074;-64
2023/12/14 07:15:46;;;;;;;;;;;;;;;;;;4983744;28;20520;-64
2023/12/14 07:18:27;;;;;;;8.13;4.60;;;;;;;;;;4981618;28;19926;-53
2023/12/14 07:21:02;;;;;;;7.63;4.05;;;;;;;;;;4985102;28;20058;-60
2023/12/14 07:23:36;;;;;;;6.32;3.40;;;;;;;;;;4978626;28;20172;-60
2023/12/14 07:26:03;;;;;;;7.13;3.90;;;;;;;;;;4985452;28;20054;-60
2023/12/14 07:28:37;;;;;;;7.35;4.22;;;;;;;;;;4982605;28;20063;-60
2023/12/14 07:31:05;;;;;;;6.00;3.60;;;;;;;;;;4984147;28;20050;-60
2023/12/14 07:33:32;;;;;;;;;;;;;;;;;;4980486;28;20047;-61
2023/12/14 07:36:06;;;;;;;6.47;3.85;;;;;;;;;;4979452;28;20231;-59
2023/12/14 07:38:33;;;;;;;;;;;;;;;;;;4982786;28;20066;-59
2023/12/14 07:41:07;;;;;;;8.20;4.20;;;;;;;;;;4985248;28;20300;-59
2023/12/14 07:43:34;;;;;;;6.05;3.80;;;;;;;;;;4982146;28;20430;-59
2023/12/14 07:46:02;;;;;;;7.75;4.07;;;;;;;;;;4983387;28;20506;-59
2023/12/14 07:48:35;;;;;;;7.38;4.50;;;;;;;;;;4967889;28;20331;-60
2023/12/14 07:51:02;;;;;;;;;;;;;;;;;;4980794;28;20425;-60
2023/12/14 07:53:36;;;;;;;8.52;4.43;;;;;;;;;;4980033;28;20580;-60
2023/12/14 07:56:04;;;;;;;8.73;4.03;;;;;;;;;;4981081;28;20149;-60
2023/12/14 07:58:31;;;;;;;9.57;4.50;;;;;;;;;;4977644;28;20417;-60
2023/12/14 08:01:05;;;;;;;10.80;4.60;;;;;;;;;;4979551;28;20458;-60
2023/12/14 08:03:32;;;;;;;;;;;;;;;;;;4981625;28;20054;-67
2023/12/14 08:06:06;;;;;;;6.13;3.50;;;;;;;;;;4980500;28;19925;-67
2023/12/14 08:08:34;;;;;;;6.15;3.92;;;;;;;;;;4980728;28;20145;-68
2023/12/14 08:11:03;;;;;;;;;;;;;;;;;;4980496;28;20132;-66
2023/12/14 08:13:36;;;;;;;6.47;3.97;;;;;;;;;;4979469;28;19932;-57
2023/12/14 08:16:06;;;;;;;7.10;4.28;;;;;;;;;;4976742;28;20054;-65
2023/12/14 08:18:48;;;;;;;6.80;3.95;;;;;;;;;;4981499;28;20121;-57
2023/12/14 08:21:22;;;;;;;8.82;4.65;;;;;;;;;;4984137;28;20066;-57
2023/12/14 08:23:55;;;;;;;10.90;5.15;;;;;;;;;;4981555;28;20054;-55
2023/12/14 08:26:29;;;;;;;6.78;4.28;;;;;;;;;;4984917;28;20108;-57
2023/12/14 08:28:57;;;;;;;11.00;5.15;;;;;;;;;;4983062;28;20046;-58
2023/12/14 08:31:36;;;;;;;7.95;4.45;;;;;;;;;;4980928;28;20066;-58
2023/12/14 08:34:03;;;;;;;7.80;4.38;;;;;;;;;;4977895;28;20050;-53
2023/12/14 08:36:37;;;;;;;8.85;4.80;;;;;;;;;;4982561;28;20062;-48
2023/12/14 08:39:04;;;;;;;10.57;4.97;;;;;;;;;;4979204;28;20078;-53
2023/12/14 08:41:32;;;;;;;10.85;4.72;;;;;;;;;;4983644;28;20108;-51
2023/12/14 08:44:05;;;;;;;11.43;4.72;;;;;;;;;;4982193;28;20050;-58
2023/12/14 08:46:39;;;;;;;7.15;4.15;;;;;;;;;;4979999;28;20051;-52
2023/12/14 08:49:15;;;;;;;8.07;4.75;;;;;;;;;;4983766;28;20050;-50
2023/12/14 08:51:43;;;;;;;7.80;4.57;;;;;;;;;;4980619;28;20422;-50
2023/12/14 08:54:10;;;;;;;9.27;4.88;;;;;;;;;;4979398;28;20105;-49
2023/12/14 08:56:43;;;;;;;7.78;4.35;;;;;;;;;;4978204;28;20077;-53
2023/12/14 08:59:10;;;;;;;13.27;5.40;;;;;;;;;;4980384;28;20043;-52
2023/12/14 09:01:44;;;;;;;10.05;5.38;;;;;;;;;;4979192;28;20046;-59
2023/12/14 09:04:11;;;;;;;;;;;;;;;;;;4980583;28;20078;-58
2023/12/14 09:06:42;;;;;;;9.40;4.85;;;;;;;;;;4979807;28;20008;-58
2023/12/14 09:09:15;;;;;;;10.95;5.65;;;;;;;;;;4980131;28;20120;-57
2023/12/14 09:11:42;;;;;;;11.23;4.90;;;;;;;;;;4980150;28;20552;-61
2023/12/14 09:14:20;;;;;;;6.35;3.53;;;;;;;;;;4978583;28;20068;-60
2023/12/14 09:16:47;;;;;;;11.85;5.68;;;;;;;;;;4972535;28;20056;-61
2023/12/14 09:19:15;;;;;;;10.38;5.60;;;;;;;;;;4982226;28;20785;-61
2023/12/14 09:21:48;;;;;;;11.63;5.60;;;;;;;;;;4979478;28;20513;-61
2023/12/14 09:24:16;;;;;;;14.63;5.35;;;;;;;;;;4981390;28;20057;-60
2023/12/14 09:26:43;;;;;;;;;;;;;;;;;;4976670;28;20439;-60
2023/12/14 09:29:18;;;;;;;10.05;5.00;;;;;;;;;;4982719;28;20016;-67
2023/12/14 09:31:46;;;;;;;10.55;5.13;;;;;;;;;;4978767;28;21173;-67
2023/12/14 09:34:20;;;;;;;10.40;5.75;;;;;;;;;;4981701;28;20065;-67
2023/12/14 09:36:47;;;;;;;11.38;5.50;;;;;;;;;;4979760;28;20120;-67
2023/12/14 09:39:15;;;;;;;12.18;5.88;;;;;;;;;;4983123;28;20082;-59
2023/12/14 09:41:50;;;;;;;10.77;5.38;;;;;;;;;;4977189;28;20054;-60
2023/12/14 09:44:18;;;;;;;8.15;5.22;;;;;;;;;;4978480;28;20128;-50
2023/12/14 09:46:51;;;;;;;9.25;4.55;;;;;;;;;;4979564;28;20069;-54
2023/12/14 09:49:19;;;;;;;;;;;;;;;;;;4981113;28;20106;-52
2023/12/14 09:51:46;;;;;;;8.25;5.20;;;;;;;;;;4979421;28;19929;-54
2023/12/14 09:54:20;;;;;;;8.70;4.95;;;;;;;;;;4980232;28;20532;-53
2023/12/14 09:56:48;;;;;;;8.48;4.97;;;;;;;;;;4979344;28;20209;-52
2023/12/14 09:59:22;;;;;;;9.32;4.57;;;;;;;;;;4979884;28;20057;-59
2023/12/14 10:01:49;;;;;;;;;;;;;;;;;;4975155;28;20077;-60
2023/12/14 10:04:18;;;;;;;8.82;4.60;;;;;;;;;;4977468;28;20017;-59
2023/12/14 10:06:52;;;;;;;9.93;5.35;;;;;;;;;;4976469;28;20054;-59
2023/12/14 10:09:23;;;;;;;8.65;4.60;;;;;;;;;;4983109;28;20050;-59
2023/12/14 10:12:03;;;;;;;8.88;4.93;;;;;;;;;;4980129;28;20057;-51
2023/12/14 10:14:30;;;;;;;15.13;4.80;;;;;;;;;;4985655;28;20046;-53
2023/12/14 10:17:31;;;;;;;11.25;4.65;;;;;;;;;;4985692;28;20051;-50
2023/12/14 10:20:09;;;;;;;9.55;4.97;;;;;;;;;;4945271;28;20067;-53
2023/12/14 10:22:44;;;;;;;9.93;4.75;;;;;;;;;;4945106;28;20070;-53
2023/12/14 10:25:12;;;;;;;9.65;4.80;;;;;;;;;;4945048;28;20059;-50
2023/12/14 10:27:52;;;;;;;8.35;4.93;;;;;;;;;;4944684;28;20195;-58
2023/12/14 10:30:19;;;;;;;9.25;5.43;;;;;;;;;;4942745;28;20055;-59
2023/12/14 10:32:54;;;;;;;8.65;4.85;;;;;;;;;;4941930;28;20063;-57
2023/12/14 10:35:22;;;;;;;10.63;4.80;;;;;;;;;;4942770;28;20058;-55
2023/12/14 10:37:52;;;;;;;7.85;4.63;;;;;;;;;;4942144;28;20062;-61
2023/12/14 10:40:26;;;;;;;7.45;4.13;;;;;;;;;;4946651;28;20416;-55
2023/12/14 10:43:01;;;;;;;11.07;5.07;;;;;;;;;;4942248;28;20066;-52
2023/12/14 10:45:39;;;;;;;8.48;4.60;;;;;;;;;;4944522;28;20119;-54
2023/12/14 10:48:06;;;;;;;11.82;5.60;;;;;;;;;;4943180;28;20066;-54
2023/12/14 10:50:43;;;;;;;9.43;4.43;;;;;;;;;;4948277;28;20150;-51
2023/12/14 10:53:10;;;;;;;9.05;5.15;;;;;;;;;;4942560;28;20130;-57
2023/12/14 10:55:45;;;;;;;9.50;4.97;;;;;;;;;;4943115;28;20066;-65
2023/12/14 10:58:13;;;;;;;8.15;4.18;;;;;;;;;;4957401;28;20054;-64
2023/12/14 11:00:43;;;;;;;10.52;5.78;;;;;;;;;;4942990;28;20082;-64
2023/12/14 11:03:17;;;;;;;9.45;4.40;;;;;;;;;;4943837;28;20365;-64
2023/12/14 11:05:44;;;;;;;8.30;4.55;;;;;;;;;;4945143;28;20122;-57
2023/12/14 11:08:24;;;;;;;9.82;5.10;;;;;;;;;;4943354;28;20063;-57
2023/12/14 11:10:57;;;;;;;9.82;4.95;;;;;;;;;;4942851;28;20060;-57
2023/12/14 11:13:32;;;;;;;8.05;4.57;;;;;;;;;;4944178;28;20058;-58
2023/12/14 11:16:06;;;;;;;11.65;4.63;;;;;;;;;;4942908;28;20051;-57
2023/12/14 11:18:47;;;;;;;11.77;5.88;;;;;;;;;;4962391;28;20100;-57
2023/12/14 11:21:21;;;;;;;10.52;4.85;;;;;;;;;;4981997;28;20058;-58
2023/12/14 11:23:54;;;;;;;8.25;4.32;;;;;;;;;;4984138;28;20682;-60
2023/12/14 11:26:22;;;;;;;10.65;5.43;;;;;;;;;;4982599;28;20374;-61
2023/12/14 11:28:50;;;;;;;11.30;5.57;;;;;;;;;;4980430;28;20139;-60
2023/12/14 11:31:27;;;;;;;8.95;4.78;;;;;;;;;;4983924;28;20105;-59
2023/12/14 11:33:56;;;;;;;11.75;5.82;;;;;;;;;;4981654;28;20542;-61
2023/12/14 11:36:23;;;;;;;12.88;6.45;;;;;;;;;;4978275;28;20058;-61
2023/12/14 11:38:57;;;;;;;13.38;6.22;;;;;;;;;;4983894;28;20538;-61
2023/12/14 11:41:25;;;;;;;13.45;6.53;;;;;;;;;;4981203;28;20049;-61
2023/12/14 11:43:59;;;;;;;11.40;5.70;;;;;;;;;;4979713;28;20042;-61
2023/12/14 11:46:27;;;;;;;5.68;3.83;;;;;;;;;;4981650;28;20444;-61
2023/12/14 11:48:56;;;;;;;7.40;4.25;;;;;;;;;;4981188;28;20170;-61
2023/12/14 11:51:31;;;;;;;9.80;4.80;;;;;;;;;;4979132;28;20054;-62
2023/12/14 11:53:58;;;;;;;;;;;;;;;;;;4981967;28;20144;-60
2023/12/14 11:56:26;;;;;;;11.80;5.65;;;;;;;;;;4982178;28;19954;-60
2023/12/14 11:59:02;;;;;;;12.30;6.40;;;;;;;;;;4980333;28;20399;-60
2023/12/14 12:01:31;;;;;;;14.85;7.03;;;;;;;;;;4979446;28;20077;-58
2023/12/14 12:04:10;;;;;;;10.70;5.63;;;;;;;;;;4978626;28;20054;-58
2023/12/14 12:06:37;;;;;;;6.38;4.28;;;;;;;;;;4981387;28;20561;-60
2023/12/14 12:09:08;;;;;;;10.80;5.50;;;;;;;;;;4981451;28;20683;-60
2023/12/14 12:11:41;;;;;;;10.90;6.07;;;;;;;;;;4964755;28;20573;-60
2023/12/14 12:14:17;;;;;;;11.82;6.30;;;;;;;;;;4977546;28;20062;-60
2023/12/14 12:16:46;;;;;;;9.43;5.72;;;;;;;;;;4983099;28;20050;-60
2023/12/14 12:19:13;;;;;;;11.77;5.68;;;;;;;;;;4953105;28;20059;-58
2023/12/14 12:21:47;;;;;;;10.65;5.15;;;;;;;;;;4948282;28;20475;-57
2023/12/14 12:24:15;;;;;;;9.43;4.88;;;;;;;;;;4942945;28;20131;-57
2023/12/14 12:26:54;;;;;;;8.85;5.20;;;;;;;;;;4945239;28;20063;-58
2023/12/14 12:29:24;;;;;;;9.70;5.25;;;;;;;;;;4940758;28;20530;-61
2023/12/14 12:31:59;;;;;;;6.93;4.25;;;;;;;;;;4938657;28;20340;-59
2023/12/14 12:34:32;;;;;;;8.75;4.30;;;;;;;;;;4947388;28;20207;-59
2023/12/14 12:37:07;;;;;;;6.35;3.75;;;;;;;;;;4945871;28;20062;-59
2023/12/14 12:39:34;;;;;;;7.13;4.28;;;;;;;;;;4943768;28;20081;-59
2023/12/14 12:42:02;;;;;;;7.32;4.72;;;;;;;;;;4946838;28;20495;-58
2023/12/14 12:44:35;;;;;;;8.35;4.90;;;;;;;;;;4943279;28;20078;-58
2023/12/14 12:47:03;;;;;;;11.70;6.30;;;;;;;;;;4942206;28;20478;-59
2023/12/14 12:49:38;;;;;;;8.82;5.22;;;;;;;;;;4943697;28;20134;-64
2023/12/14 12:52:05;;;;;;;8.65;4.90;;;;;;;;;;4944425;28;20059;-65
2023/12/14 12:54:33;;;;;;;7.90;4.90;;;;;;;;;;4941946;28;20537;-64
2023/12/14 12:57:06;;;;;;;9.85;5.18;;;;;;;;;;4940802;28;20181;-65
2023/12/14 12:59:33;;;;;;;8.85;4.78;;;;;;;;;;4941562;28;20454;-48
2023/12/14 13:02:07;;;;;;;11.02;5.65;;;;;;;;;;4941941;28;20948;-68
2023/12/14 13:04:36;;;;;;;9.35;5.25;;;;;;;;;;4940787;28;20059;-68
2023/12/14 13:07:04;;;;;;;10.90;5.93;;;;;;;;;;4945091;28;20055;-67
2023/12/14 13:09:38;;;;;;;10.15;5.35;;;;;;;;;;4946736;28;20236;-67
2023/12/14 13:12:12;;;;;;;10.18;5.43;;;;;;;;;;4945854;28;20126;-67
2023/12/14 13:14:46;;;;;;;10.07;5.63;;;;;;;;;;4942248;28;20055;-67
2023/12/14 13:17:16;;;;;;;10.98;5.40;;;;;;;;;;4939417;28;20059;-53
2023/12/14 13:19:43;;;;;;;10.77;5.05;;;;;;;;;;4971267;28;20050;-50
2023/12/14 13:22:17;;;;;;;8.85;4.90;;;;;;;;;;4982210;28;20145;-52
2023/12/14 13:24:45;;;;;;;8.98;4.75;;;;;;;;;;4978608;28;20537;-50
2023/12/14 13:27:20;;;;;;;9.10;5.22;;;;;;;;;;4983377;28;20145;-58
2023/12/14 13:29:47;;;;;;;7.55;4.30;;;;;;;;;;4981654;28;20054;-60
2023/12/14 13:32:15;;;;;;;7.97;4.38;;;;;;;;;;4975220;28;20164;-61
2023/12/14 13:34:49;;;;;;;8.52;4.95;;;;;;;;;;4980716;28;20148;-60
2023/12/14 13:37:16;;;;;;;9.95;4.50;;;;;;;;;;4979573;28;20540;-61
2023/12/14 13:39:43;;;;;;;7.55;4.15;;;;;;;;;;4975494;28;20092;-60
2023/12/14 13:42:18;;;;;;;7.15;4.13;;;;;;;;;;4980247;28;20070;-61
2023/12/14 13:44:45;;;;;;;;;;;;;;;;;;4985725;28;20074;-58
2023/12/14 13:47:12;;;;;;;9.45;4.53;;;;;;;;;;4981312;28;19922;-57
2023/12/14 13:49:45;;;;;;;6.45;4.00;;;;;;;;;;4982177;28;20054;-58
2023/12/14 13:52:12;;;;;;;9.50;4.50;;;;;;;;;;4982895;28;20529;-59
2023/12/14 13:54:46;;;;;;;7.13;4.40;;;;;;;;;;4979526;28;20518;-58
2023/12/14 13:57:14;;;;;;;9.00;4.63;;;;;;;;;;4981838;28;20046;-57
2023/12/14 13:59:41;;;;;;;7.72;4.22;;;;;;;;;;4986267;28;20486;-52
2023/12/14 14:02:14;;;;;;;11.07;4.68;;;;;;;;;;4982627;28;20593;-51
2023/12/14 14:04:42;;;;;;;8.95;4.88;;;;;;;;;;4983477;28;20156;-53
2023/12/14 14:07:16;;;;;;;9.80;4.70;;;;;;;;;;4982465;28;20054;-48
2023/12/14 14:09:44;;;;;;;9.73;4.38;;;;;;;;;;4981365;28;20057;-53
2023/12/14 14:12:11;;;;;;;8.90;4.45;;;;;;;;;;4984523;28;20054;-49
2023/12/14 14:14:44;;;;;;;7.88;4.40;;;;;;;;;;4982182;28;20094;-59
2023/12/14 14:17:11;;;;;;;8.85;4.70;;;;;;;;;;4981105;28;20086;-60
2023/12/14 14:19:52;;;;;;;6.55;3.75;;;;;;;;;;4981266;28;20046;-59
2023/12/14 14:22:20;;;;;;;6.72;4.32;;;;;;;;;;4982452;28;20057;-60
2023/12/14 14:24:54;;;;;;;7.53;4.10;;;;;;;;;;4983027;28;20158;-53
2023/12/14 14:27:22;;;;;;;8.48;4.40;;;;;;;;;;4983140;28;20477;-64
2023/12/14 14:29:49;;;;;;;;;;;;;;;;;;4983646;28;20062;-64
2023/12/14 14:32:22;;;;;;;7.95;3.80;;;;;;;;;;4981087;28;19927;-64
2023/12/14 14:34:50;;;;;;;9.27;4.55;;;;;;;;;;4981626;28;20093;-64
2023/12/14 14:37:25;;;;;;;8.30;4.15;;;;;;;;;;4983404;28;20108;-65
2023/12/14 14:39:52;;;;;;;5.60;3.63;;;;;;;;;;4986080;28;20122;-64
2023/12/14 14:42:19;;;;;;;6.50;3.85;;;;;;;;;;4983373;28;20054;-49
2023/12/14 14:44:53;;;;;;;5.60;3.58;;;;;;;;;;4982297;28;20468;-52
2023/12/14 14:47:21;;;;;;;5.57;3.33;;;;;;;;;;4984381;28;20149;-51
2023/12/14 14:50:02;;;;;;;6.35;3.63;;;;;;;;;;4980432;28;20117;-48
2023/12/14 14:52:30;;;;;;;6.00;3.75;;;;;;;;;;4983108;28;20118;-65
2023/12/14 14:55:05;;;;;;;7.00;4.00;;;;;;;;;;4981447;28;20453;-64
2023/12/14 14:57:33;;;;;;;;;;;;;;;;;;4984912;28;20502;-65
2023/12/14 15:00:00;;;;;;;5.90;3.30;;;;;;;;;;4982235;28;19922;-64
2023/12/14 15:02:35;;;;;;;4.72;3.33;;;;;;;;;;4979034;28;20498;-65
2023/12/14 15:05:03;;;;;;;8.82;4.13;;;;;;;;;;4979379;28;20057;-64
2023/12/14 15:07:30;;;;;;;8.85;4.20;;;;;;;;;;4980607;28;20257;-63
2023/12/14 15:10:03;;;;;;;6.38;3.70;;;;;;;;;;4978911;28;20390;-60
2023/12/14 15:12:31;;;;;;;6.10;3.70;;;;;;;;;;4981677;28;20426;-59
2023/12/14 15:15:05;;;;;;;8.73;4.30;;;;;;;;;;4981176;28;20077;-60
2023/12/14 15:17:42;;;;;;;6.97;3.83;;;;;;;;;;4978596;28;20061;-60
2023/12/14 15:20:22;;;;;;;5.82;3.63;;;;;;;;;;4979267;28;20055;-58
2023/12/14 15:22:51;;;;;;;6.55;3.40;;;;;;;;;;4984846;28;20050;-60
2023/12/14 15:25:31;;;;;;;9.27;4.55;;;;;;;;;;4982046;28;20405;-48
2023/12/14 15:28:05;;;;;;;7.75;3.83;;;;;;;;;;4981394;28;20070;-52
2023/12/14 15:30:33;;;;;;;6.80;3.60;;;;;;;;;;4986050;28;20054;-47
2023/12/14 15:33:00;;;;;;;6.15;3.58;;;;;;;;;;4982271;28;20065;-54